createdAt,value
2023-05-09T00:00:33.829Z,3.07
2023-05-09T00:03:36.536Z,3.05
2023-05-09T00:06:39.250Z,3.30
2023-05-09T00:09:41.966Z,3.10
2023-05-09T00:12:44.626Z,3.12
2023-05-09T00:15:47.339Z,2.83
2023-05-09T00:18:51.077Z,3.08
2023-05-09T00:21:54.592Z,2.87
2023-05-09T00:24:57.180Z,2.95
2023-05-09T00:28:00.957Z,3.10
2023-05-09T00:31:04.493Z,2.83
2023-05-09T00:34:07.155Z,2.85
2023-05-09T00:37:10.167Z,2.97
2023-05-09T00:40:13.060Z,3.05
2023-05-09T00:43:17.032Z,2.80
2023-05-09T00:46:20.011Z,3.03
2023-05-09T00:49:22.712Z,2.75
2023-05-09T00:52:26.429Z,2.97
2023-05-09T00:55:29.385Z,2.90
2023-05-09T00:58:32.455Z,2.92
2023-05-09T01:01:35.198Z,2.80
2023-05-09T01:04:38.173Z,3.33
2023-05-09T01:07:48.026Z,3.17
2023-05-09T01:11:33.528Z,2.87
2023-05-09T01:14:47.504Z,3.20
2023-05-09T01:17:58.915Z,3.37
2023-05-09T01:21:08.985Z,2.92
2023-05-09T01:24:33.771Z,3.00
2023-05-09T01:27:44.718Z,3.40
2023-05-09T01:30:47.810Z,3.12
2023-05-09T01:33:55.099Z,3.00
2023-05-09T01:37:00.006Z,3.22
2023-05-09T01:40:14.481Z,3.15
2023-05-09T01:43:17.717Z,3.35
2023-05-09T01:46:22.275Z,3.00
2023-05-09T01:49:25.559Z,3.40
2023-05-09T01:52:29.315Z,2.97
2023-05-09T01:55:33.958Z,3.40
2023-05-09T01:58:38.580Z,3.08
2023-05-09T02:01:41.260Z,2.95
2023-05-09T02:04:44.560Z,3.37
2023-05-09T02:07:47.848Z,3.42
2023-05-09T02:10:50.691Z,3.25
2023-05-09T02:13:53.436Z,3.20
2023-05-09T02:16:56.367Z,3.20
2023-05-09T02:19:59.111Z,3.40
2023-05-09T02:23:01.982Z,3.20
2023-05-09T02:26:04.780Z,3.40
2023-05-09T02:29:08.323Z,3.33
2023-05-09T02:32:14.437Z,3.37
2023-05-09T02:35:17.846Z,3.10
2023-05-09T02:38:21.669Z,3.03
2023-05-09T02:41:27.931Z,3.55
2023-05-09T02:44:30.919Z,3.40
2023-05-09T02:47:33.545Z,3.58
2023-05-09T02:50:38.601Z,3.77
2023-05-09T02:53:41.365Z,3.35
2023-05-09T02:56:44.163Z,3.62
2023-05-09T02:59:46.791Z,3.45
2023-05-09T03:02:49.620Z,3.67
2023-05-09T03:05:52.261Z,3.13
2023-05-09T03:08:54.901Z,3.33
2023-05-09T03:11:57.615Z,2.87
2023-05-09T03:15:01.394Z,3.33
2023-05-09T03:18:04.258Z,3.37
2023-05-09T03:21:07.319Z,2.80
2023-05-09T03:24:11.018Z,3.42
2023-05-09T03:27:13.603Z,3.55
2023-05-09T03:30:16.449Z,2.95
2023-05-09T03:33:19.141Z,3.10
2023-05-09T03:36:22.279Z,3.50
2023-05-09T03:39:24.990Z,3.50
2023-05-09T03:42:27.649Z,3.65
2023-05-09T03:45:30.617Z,3.83
2023-05-09T03:48:33.474Z,3.80
2023-05-09T03:51:36.873Z,3.53
2023-05-09T03:54:39.629Z,4.68
2023-05-09T03:57:42.318Z,3.95
2023-05-09T04:00:45.224Z,3.78
2023-05-09T04:03:48.078Z,4.12
2023-05-09T04:06:50.804Z,4.43
2023-05-09T04:09:54.214Z,4.18
2023-05-09T04:12:57.000Z,4.43
2023-05-09T04:15:59.665Z,4.10
2023-05-09T04:19:03.476Z,4.75
2023-05-09T04:22:06.220Z,4.07
2023-05-09T04:25:12.679Z,4.50
2023-05-09T04:28:15.552Z,5.10
2023-05-09T04:31:18.347Z,4.80
2023-05-09T04:34:21.275Z,4.40
2023-05-09T04:37:24.007Z,4.93
2023-05-09T04:40:27.126Z,4.80
2023-05-09T04:43:30.307Z,4.93
2023-05-09T04:46:33.097Z,4.82
2023-05-09T04:49:35.894Z,4.82
2023-05-09T04:52:38.610Z,5.37
2023-05-09T04:55:41.294Z,5.75
2023-05-09T04:58:46.958Z,5.40
2023-05-09T05:01:49.826Z,5.50
2023-05-09T05:04:56.043Z,5.75
2023-05-09T05:08:05.834Z,5.70
2023-05-09T05:11:08.514Z,6.28
2023-05-09T05:14:11.228Z,5.72
2023-05-09T05:17:18.483Z,5.30
2023-05-09T05:20:21.368Z,5.22
2023-05-09T05:23:24.080Z,5.10
2023-05-09T05:26:26.968Z,5.03
2023-05-09T05:29:32.711Z,4.82
2023-05-09T05:32:35.389Z,4.80
2023-05-09T05:35:38.109Z,4.97
2023-05-09T05:38:40.829Z,4.47
2023-05-09T05:41:46.595Z,4.35
2023-05-09T05:44:49.269Z,4.62
2023-05-09T05:47:52.002Z,4.70
2023-05-09T05:50:55.143Z,4.22
2023-05-09T05:54:01.117Z,3.80
2023-05-09T05:57:08.429Z,4.12
2023-05-09T06:00:12.063Z,4.40
2023-05-09T06:03:15.011Z,4.50
2023-05-09T06:06:22.032Z,4.12
2023-05-09T06:09:24.793Z,4.10
2023-05-09T06:12:28.060Z,4.20
2023-05-09T06:15:31.033Z,3.90
2023-05-09T06:18:35.739Z,3.75
2023-05-09T06:21:38.490Z,4.00
2023-05-09T06:24:41.197Z,3.40
2023-05-09T06:27:44.943Z,3.50
2023-05-09T06:30:50.606Z,2.87
2023-05-09T06:33:53.485Z,2.80
2023-05-09T06:36:56.127Z,3.20
2023-05-09T06:39:58.994Z,3.50
2023-05-09T06:43:01.719Z,3.20
2023-05-09T06:46:07.570Z,3.62
2023-05-09T06:49:11.076Z,2.85
2023-05-09T06:52:15.929Z,3.08
2023-05-09T06:55:18.586Z,2.77
2023-05-09T06:58:21.380Z,2.60
2023-05-09T07:01:24.240Z,2.33
2023-05-09T07:04:27.291Z,2.53
2023-05-09T07:07:30.002Z,1.98
2023-05-09T07:10:32.876Z,2.87
2023-05-09T07:13:35.605Z,2.80
2023-05-09T07:16:38.468Z,2.95
2023-05-09T07:19:41.442Z,3.20
2023-05-09T07:22:45.525Z,3.40
2023-05-09T07:25:48.265Z,3.20
2023-05-09T07:28:50.993Z,3.65
2023-05-09T07:31:53.739Z,3.47
2023-05-09T07:34:57.311Z,3.30
2023-05-09T07:37:59.994Z,3.90
2023-05-09T07:41:02.758Z,3.50
2023-05-09T07:44:05.659Z,3.62
2023-05-09T07:47:09.300Z,3.35
2023-05-09T07:50:12.020Z,3.15
2023-05-09T07:53:14.891Z,3.60
2023-05-09T07:56:17.663Z,3.40
2023-05-09T07:59:20.718Z,3.92
2023-05-09T08:02:23.554Z,3.60
2023-05-09T08:05:27.478Z,3.72
2023-05-09T08:08:30.226Z,3.58
2023-05-09T08:11:36.517Z,3.97
2023-05-09T08:14:39.247Z,2.90
2023-05-09T08:17:41.952Z,2.80
2023-05-09T08:20:45.103Z,2.40
2023-05-09T08:23:47.790Z,2.33
2023-05-09T08:26:50.501Z,3.13
2023-05-09T08:29:53.158Z,3.10
2023-05-09T08:32:59.148Z,3.10
2023-05-09T08:36:02.000Z,3.50
2023-05-09T08:39:04.666Z,3.00
2023-05-09T08:42:09.319Z,3.03
2023-05-09T08:45:15.322Z,3.10
2023-05-09T08:48:18.507Z,2.87
2023-05-09T08:51:21.741Z,3.20
2023-05-09T08:54:25.583Z,2.90
2023-05-09T08:57:28.553Z,2.53
2023-05-09T09:00:32.675Z,3.30
2023-05-09T09:03:38.188Z,3.65
2023-05-09T09:06:41.092Z,2.60
2023-05-09T09:09:49.345Z,2.50
2023-05-09T09:12:53.561Z,2.20
2023-05-09T09:15:58.167Z,2.53
2023-05-09T09:19:01.085Z,2.58
2023-05-09T09:22:07.413Z,2.30
2023-05-09T09:25:10.387Z,2.72
2023-05-09T09:28:13.377Z,2.63
2023-05-09T09:31:22.361Z,2.78
2023-05-09T09:34:25.296Z,2.65
2023-05-09T09:37:27.958Z,2.70
2023-05-09T09:40:30.691Z,2.92
2023-05-09T09:43:33.434Z,2.67
2023-05-09T09:46:52.256Z,2.83
2023-05-09T09:49:54.913Z,3.03
2023-05-09T09:52:57.721Z,3.30
2023-05-09T09:56:00.468Z,3.42
2023-05-09T09:59:14.506Z,3.80
2023-05-09T10:02:17.325Z,3.05
2023-05-09T10:05:21.885Z,2.95
2023-05-09T10:08:24.725Z,3.05
2023-05-09T10:11:27.552Z,3.50
2023-05-09T10:14:33.581Z,2.93
2023-05-09T10:17:38.126Z,3.35
2023-05-09T10:20:42.275Z,3.50
2023-05-09T10:23:47.591Z,3.60
2023-05-09T10:26:51.049Z,3.83
2023-05-09T10:30:05.076Z,4.07
2023-05-09T10:33:11.573Z,4.03
2023-05-09T10:36:17.915Z,3.40
2023-05-09T10:39:20.750Z,3.75
2023-05-09T10:42:25.333Z,3.60
2023-05-09T10:45:28.045Z,3.20
2023-05-09T10:48:32.864Z,3.58
2023-05-09T10:51:35.606Z,3.45
2023-05-09T10:54:38.496Z,3.20
2023-05-09T10:57:42.325Z,3.60
2023-05-09T11:00:44.952Z,3.53
2023-05-09T11:03:58.266Z,3.60
2023-05-09T11:07:01.322Z,3.92
2023-05-09T11:10:31.781Z,3.60
2023-05-09T11:13:40.836Z,3.37
2023-05-09T11:17:04.473Z,3.20
2023-05-09T11:20:07.925Z,3.28
2023-05-09T11:26:15.317Z,3.53
2023-05-09T11:29:21.052Z,3.45
2023-05-09T11:32:34.720Z,3.80
2023-05-09T11:35:38.083Z,3.40
2023-05-09T11:38:44.356Z,3.37
2023-05-09T11:41:47.482Z,3.42
2023-05-09T11:44:50.380Z,3.28
2023-05-09T11:47:54.235Z,3.00
2023-05-09T11:50:56.994Z,3.22
2023-05-09T11:53:59.705Z,3.22
2023-05-09T11:57:02.570Z,3.05
2023-05-09T12:00:06.292Z,3.25
2023-05-09T12:03:09.067Z,3.30
2023-05-09T12:06:19.128Z,3.25
2023-05-09T12:09:22.540Z,3.50
2023-05-09T12:12:25.424Z,3.60
2023-05-09T12:15:29.446Z,3.22
2023-05-09T12:18:32.073Z,2.90
2023-05-09T12:21:34.795Z,3.10
2023-05-09T12:24:37.914Z,3.00
2023-05-09T12:27:41.831Z,2.80
2023-05-09T12:30:45.279Z,3.00
2023-05-09T12:33:50.891Z,2.90
2023-05-09T12:36:53.858Z,3.20
2023-05-09T12:40:12.660Z,2.60
2023-05-09T12:43:17.914Z,2.70
2023-05-09T12:46:21.952Z,2.80
2023-05-09T12:49:25.309Z,2.70
2023-05-09T12:53:01.849Z,2.85
2023-05-09T12:56:13.794Z,2.65
2023-05-09T12:59:21.202Z,2.45
2023-05-09T13:02:23.929Z,2.50
2023-05-09T13:05:26.782Z,2.50
2023-05-09T13:08:30.509Z,2.53
2023-05-09T13:11:33.240Z,2.42
2023-05-09T13:14:36.223Z,2.75
2023-05-09T13:17:39.076Z,2.65
2023-05-09T13:20:41.830Z,2.70
2023-05-09T13:23:45.770Z,2.50
2023-05-09T13:26:49.536Z,2.50
2023-05-09T13:29:52.264Z,2.28
2023-05-09T13:32:54.968Z,2.45
2023-05-09T13:35:57.866Z,2.40
2023-05-09T13:39:00.615Z,2.22
2023-05-09T13:42:04.127Z,2.50
2023-05-09T13:45:07.474Z,2.45
2023-05-09T13:48:10.355Z,2.83
2023-05-09T13:51:14.209Z,2.43
2023-05-09T13:54:19.847Z,2.60
2023-05-09T13:57:22.816Z,2.45
2023-05-09T14:00:26.789Z,2.50
2023-05-09T14:03:29.600Z,2.50
2023-05-09T14:06:33.446Z,2.27
2023-05-09T14:09:40.281Z,2.30
2023-05-09T14:12:47.409Z,2.50
2023-05-09T14:15:50.223Z,2.50
2023-05-09T14:18:52.864Z,2.60
2023-05-09T14:21:55.552Z,2.77
2023-05-09T14:24:58.768Z,2.90
2023-05-09T14:28:01.445Z,2.90
2023-05-09T14:31:04.275Z,2.45
2023-05-09T14:34:07.086Z,2.55
2023-05-09T14:37:13.857Z,2.20
2023-05-09T14:40:22.083Z,2.10
2023-05-09T14:43:24.921Z,2.25
2023-05-09T14:46:27.702Z,1.70
2023-05-09T14:49:31.674Z,2.12
2023-05-09T14:52:34.378Z,2.37
2023-05-09T14:55:37.434Z,2.33
2023-05-09T14:58:40.200Z,2.62
2023-05-09T15:01:42.770Z,2.33
2023-05-09T15:04:45.457Z,2.35
2023-05-09T15:07:50.891Z,2.23
2023-05-09T15:10:53.705Z,2.20
2023-05-09T15:13:56.461Z,2.20
2023-05-09T15:17:01.648Z,1.90
2023-05-09T15:20:04.773Z,1.92
2023-05-09T15:23:08.053Z,2.37
2023-05-09T15:26:14.120Z,1.73
2023-05-09T15:29:16.953Z,2.33
2023-05-09T15:32:19.652Z,2.70
2023-05-09T15:35:22.334Z,2.15
2023-05-09T15:38:25.550Z,2.17
2023-05-09T15:41:28.900Z,1.80
2023-05-09T15:44:32.271Z,2.00
2023-05-09T15:47:35.104Z,2.95
2023-05-09T15:50:38.111Z,1.80
2023-05-09T15:53:40.933Z,2.80
2023-05-09T15:56:43.756Z,2.10
2023-05-09T15:59:46.579Z,2.25
2023-05-09T16:02:50.416Z,1.90
2023-05-09T16:05:53.466Z,1.90
2023-05-09T16:08:56.492Z,1.73
2023-05-09T16:11:59.199Z,2.15
2023-05-09T16:15:02.234Z,2.25
2023-05-09T16:18:05.549Z,1.92
2023-05-09T16:21:11.846Z,2.05
2023-05-09T16:24:14.546Z,1.90
2023-05-09T16:27:18.064Z,1.95
2023-05-09T16:30:20.761Z,2.15
2023-05-09T16:33:23.618Z,2.35
2023-05-09T16:36:26.341Z,1.83
2023-05-09T16:39:29.072Z,1.80
2023-05-09T16:42:31.889Z,1.80
2023-05-09T16:45:34.574Z,1.80
2023-05-09T16:48:37.331Z,1.67
2023-05-09T16:51:40.166Z,1.50
2023-05-09T16:54:42.906Z,1.63
2023-05-09T16:57:45.753Z,2.00
2023-05-09T17:00:51.575Z,2.03
2023-05-09T17:03:54.353Z,2.03
2023-05-09T17:06:57.216Z,2.08
2023-05-09T17:09:59.958Z,1.50
2023-05-09T17:13:07.793Z,1.70
2023-05-09T17:16:11.029Z,1.60
2023-05-09T17:19:13.877Z,1.42
2023-05-09T17:22:16.586Z,1.90
2023-05-09T17:25:19.388Z,1.40
2023-05-09T17:28:22.106Z,1.40
2023-05-09T17:31:24.989Z,1.70
2023-05-09T17:34:28.572Z,1.90
2023-05-09T17:37:31.261Z,1.92
2023-05-09T17:40:34.945Z,1.60
2023-05-09T17:43:38.968Z,1.70
2023-05-09T17:46:42.279Z,2.10
2023-05-09T17:49:45.088Z,2.30
2023-05-09T17:52:49.696Z,2.40
2023-05-09T17:55:52.397Z,2.50
2023-05-09T17:58:55.793Z,2.00
2023-05-09T18:01:58.623Z,2.22
2023-05-09T18:05:01.461Z,2.03
2023-05-09T18:08:04.344Z,2.22
2023-05-09T18:11:07.023Z,1.73
2023-05-09T18:14:09.898Z,1.83
2023-05-09T18:17:12.609Z,2.15
2023-05-09T18:20:15.607Z,2.17
2023-05-09T18:23:18.423Z,2.17
2023-05-09T18:26:22.095Z,2.57
2023-05-09T18:29:25.024Z,2.22
2023-05-09T18:32:27.873Z,2.00
2023-05-09T18:35:33.813Z,2.28
2023-05-09T18:38:41.180Z,2.50
2023-05-09T18:41:43.857Z,1.73
2023-05-09T18:44:46.748Z,2.12
2023-05-09T18:47:49.583Z,2.25
2023-05-09T18:50:55.205Z,2.45
2023-05-09T18:53:58.307Z,2.72
2023-05-09T18:57:01.216Z,2.40
2023-05-09T19:00:04.944Z,2.00
2023-05-09T19:03:08.001Z,2.65
2023-05-09T19:06:13.254Z,3.00
2023-05-09T19:09:16.778Z,2.50
2023-05-09T19:12:23.952Z,2.30
2023-05-09T19:15:27.078Z,2.05
2023-05-09T19:18:33.662Z,1.80
2023-05-09T19:21:37.362Z,2.00
2023-05-09T19:24:44.321Z,2.70
2023-05-09T19:27:47.470Z,2.77
2023-05-09T19:30:50.602Z,2.40
2023-05-09T19:33:53.872Z,1.83
2023-05-09T19:36:56.957Z,1.87
2023-05-09T19:39:59.964Z,1.90
2023-05-09T19:43:02.933Z,1.53
2023-05-09T19:46:05.967Z,1.85
2023-05-09T19:49:10.521Z,1.98
2023-05-09T19:52:13.729Z,1.90
2023-05-09T19:55:16.940Z,2.10
2023-05-09T19:58:20.859Z,1.97
2023-05-09T20:01:23.596Z,1.90
2023-05-09T20:04:26.287Z,2.28
2023-05-09T20:07:29.762Z,2.12
2023-05-09T20:10:35.554Z,2.25
2023-05-09T20:13:38.148Z,2.07
2023-05-09T20:16:42.567Z,1.75
2023-05-09T20:19:45.414Z,2.37
2023-05-09T20:22:49.695Z,2.00
2023-05-09T20:25:52.584Z,2.00
2023-05-09T20:29:01.440Z,1.67
2023-05-09T20:32:04.386Z,2.25
2023-05-09T20:35:07.909Z,2.20
2023-05-09T20:38:13.889Z,2.83
2023-05-09T20:41:17.569Z,3.00
2023-05-09T20:44:23.430Z,2.93
2023-05-09T20:47:26.671Z,2.80
2023-05-09T20:50:29.885Z,3.33
2023-05-09T20:53:35.688Z,4.20
2023-05-09T20:56:41.399Z,3.58
2023-05-09T20:59:44.424Z,3.93
2023-05-09T21:02:47.224Z,3.83
2023-05-09T21:05:49.945Z,4.28
2023-05-09T21:08:52.699Z,4.25
2023-05-09T21:11:55.377Z,4.10
2023-05-09T21:14:57.961Z,4.40
2023-05-09T21:18:00.594Z,4.30
2023-05-09T21:21:08.195Z,5.03
2023-05-09T21:24:10.872Z,4.72
2023-05-09T21:27:13.434Z,5.43
2023-05-09T21:30:16.358Z,5.10
2023-05-09T21:33:19.319Z,5.25
2023-05-09T21:36:21.927Z,6.05
2023-05-09T21:39:24.545Z,5.40
2023-05-09T21:42:27.105Z,5.45
2023-05-09T21:45:30.469Z,5.70
2023-05-09T21:48:33.256Z,5.12
2023-05-09T21:51:35.872Z,5.22
2023-05-09T21:54:38.387Z,5.05
2023-05-09T21:57:40.963Z,5.03
2023-05-09T22:00:44.360Z,5.27
2023-05-09T22:03:47.090Z,4.78
2023-05-09T22:06:49.802Z,4.60
2023-05-09T22:09:53.194Z,4.47
2023-05-09T22:12:55.853Z,4.55
2023-05-09T22:15:58.547Z,4.80
2023-05-09T22:19:01.317Z,4.10
2023-05-09T22:22:04.128Z,4.80
2023-05-09T22:25:07.223Z,3.90
2023-05-09T22:28:09.979Z,4.00
2023-05-09T22:31:12.660Z,3.23
2023-05-09T22:34:15.448Z,3.20
2023-05-09T22:37:18.178Z,3.47
2023-05-09T22:40:24.126Z,2.65
2023-05-09T22:43:31.136Z,2.75
2023-05-09T22:46:41.453Z,2.13
2023-05-09T22:49:45.772Z,2.47
2023-05-09T22:52:48.688Z,2.40
2023-05-09T22:55:52.790Z,2.05
2023-05-09T22:58:55.817Z,2.40
2023-05-09T23:01:59.226Z,2.00
2023-05-09T23:05:01.988Z,2.33
2023-05-09T23:08:07.689Z,2.25
2023-05-09T23:11:13.815Z,2.05
2023-05-09T23:14:19.393Z,2.08
2023-05-09T23:17:22.429Z,2.20
2023-05-09T23:20:26.025Z,2.70
2023-05-09T23:23:28.990Z,2.45
2023-05-09T23:26:31.630Z,2.28
2023-05-09T23:29:34.387Z,2.30
2023-05-09T23:32:37.279Z,2.20
2023-05-09T23:35:39.995Z,2.20
2023-05-09T23:38:42.594Z,2.17
2023-05-09T23:41:45.325Z,2.40
2023-05-09T23:44:48.232Z,2.40
2023-05-09T23:47:50.935Z,2.43
2023-05-09T23:50:53.638Z,2.10
2023-05-09T23:53:56.722Z,2.20
2023-05-09T23:56:59.562Z,2.12
